Time;durP1;ratioP1;P1;durP2;ratioP2;P2;SDS_P1;SDS_P2;PMS_P1;PMS_P2;Temp;Humidity;BMP_temperature;BMP_pressure;BME280_temperature;BME280_humidity;BME280_pressure;Samples;Min_cycle;Max_cycle;Signal;HPM_P1;HPM_P2
2022/12/22 03:28:04;;;;;;;22.77;6.50;;;10.70;99.90;;;;;;5085012;28;20058;-55
2022/12/22 03:30:30;;;;;;;16.10;6.30;;;10.70;99.90;;;;;;5083741;28;20029;-54
2022/12/22 03:32:56;;;;;;;16.90;6.00;;;10.70;99.90;;;;;;5085144;28;20433;-55
2022/12/22 03:35:21;;;;;;;14.38;6.03;;;10.70;99.90;;;;;;5083581;28;20085;-55
2022/12/22 03:37:47;;;;;;;12.23;5.82;;;10.70;99.90;;;;;;5084858;28;20084;-55
2022/12/22 03:40:12;;;;;;;18.27;6.60;;;10.70;99.90;;;;;;5083549;28;20036;-55
2022/12/22 03:48:06;;;;;;;14.65;5.85;;;10.70;99.90;;;;;;5083796;28;20035;-55
2022/12/22 03:50:32;;;;;;;16.38;5.65;;;10.70;99.90;;;;;;5084895;28;20025;-55
2022/12/22 03:52:57;;;;;;;15.95;6.15;;;10.70;99.90;;;;;;5083545;28;20017;-55
2022/12/22 03:55:23;;;;;;;15.40;6.20;;;10.70;99.90;;;;;;5083609;28;20032;-55
2022/12/22 03:57:48;;;;;;;18.48;6.78;;;10.70;99.90;;;;;;5084919;28;20040;-54
2022/12/22 04:00:14;;;;;;;18.40;6.82;;;10.70;99.90;;;;;;5083409;28;20036;-55
2022/12/22 04:02:40;;;;;;;16.13;5.25;;;10.70;99.90;;;;;;5083294;28;20456;-55
2022/12/22 04:05:06;;;;;;;20.90;5.93;;;10.70;99.90;;;;;;5083363;28;20090;-54
2022/12/22 04:07:31;;;;;;;12.63;5.38;;;10.70;99.90;;;;;;5083434;28;20100;-54
2022/12/22 04:12:53;;;;;;;13.27;5.10;;;10.70;99.90;;;;;;5083574;28;20039;-55
2022/12/22 04:15:20;;;;;;;12.20;4.85;;;10.70;99.90;;;;;;5083361;28;20029;-55
2022/12/22 04:17:45;;;;;;;11.48;4.72;;;10.70;99.90;;;;;;5084749;28;20108;-55
2022/12/22 04:20:11;;;;;;;11.65;4.35;;;10.60;99.90;;;;;;5087443;28;20424;-54
2022/12/22 04:22:36;;;;;;;11.02;4.90;;;10.70;99.90;;;;;;5088603;28;20499;-54
2022/12/22 04:25:02;;;;;;;13.13;5.03;;;10.60;99.90;;;;;;5088668;28;20028;-55
2022/12/22 04:27:28;;;;;;;15.07;5.50;;;10.70;99.90;;;;;;5087180;28;20415;-54
2022/12/22 04:29:53;;;;;;;12.43;5.50;;;10.60;99.90;;;;;;5087118;28;20027;-54
2022/12/22 04:32:19;;;;;;;10.88;4.80;;;10.70;99.90;;;;;;5087349;28;20020;-55
2022/12/22 04:34:44;;;;;;;12.43;5.13;;;10.70;99.90;;;;;;5087203;28;20036;-55
2022/12/22 04:37:10;;;;;;;11.63;4.85;;;10.70;99.90;;;;;;5088448;28;20028;-54
2022/12/22 04:39:35;;;;;;;11.18;5.47;;;10.60;99.90;;;;;;5086904;28;20208;-55
2022/12/22 04:42:01;;;;;;;12.32;5.45;;;10.70;99.90;;;;;;5088267;28;20029;-54
2022/12/22 04:44:26;;;;;;;13.57;5.00;;;10.60;99.90;;;;;;5087892;28;20090;-54
2022/12/22 04:46:52;;;;;;;11.88;4.80;;;10.70;99.90;;;;;;5088289;28;20033;-54
2022/12/22 04:49:17;;;;;;;12.25;4.70;;;10.60;99.90;;;;;;5086744;28;20037;-54
2022/12/22 04:51:43;;;;;;;17.63;5.28;;;10.70;99.90;;;;;;5086548;28;20043;-55
2022/12/22 04:54:09;;;;;;;11.65;5.28;;;10.70;99.90;;;;;;5086602;28;20042;-54
2022/12/22 04:56:35;;;;;;;11.73;4.82;;;10.60;99.90;;;;;;5069704;28;20028;-54
2022/12/22 04:59:00;;;;;;;15.65;4.97;;;10.70;99.90;;;;;;5087869;28;20048;-54
2022/12/22 05:01:26;;;;;;;12.55;5.07;;;10.70;99.90;;;;;;5087760;28;20050;-55
2022/12/22 05:03:51;;;;;;;12.55;4.68;;;10.70;99.90;;;;;;5087736;28;20119;-54
2022/12/22 05:06:17;;;;;;;12.95;5.30;;;10.70;99.90;;;;;;5087557;28;20029;-54
2022/12/22 05:08:42;;;;;;;14.63;5.05;;;10.70;99.90;;;;;;5085984;28;20024;-55
2022/12/22 05:11:08;;;;;;;13.93;4.95;;;10.70;99.90;;;;;;5088317;28;20020;-55
2022/12/22 05:13:34;;;;;;;9.57;4.82;;;10.70;99.90;;;;;;5086348;28;20025;-54
2022/12/22 05:16:07;;;;;;;12.18;4.93;;;10.60;99.90;;;;;;5086075;28;20033;-55
2022/12/22 05:18:33;;;;;;;10.77;4.60;;;10.70;99.90;;;;;;5086142;28;20475;-55
2022/12/22 05:21:02;;;;;;;9.52;4.53;;;10.60;99.90;;;;;;5086187;28;20093;-54
2022/12/22 05:23:27;;;;;;;13.88;4.75;;;10.60;99.90;;;;;;5087483;28;20082;-54
2022/12/22 05:25:53;;;;;;;15.85;4.70;;;10.60;99.90;;;;;;5085980;28;20032;-54
2022/12/22 05:28:18;;;;;;;15.00;4.53;;;10.60;99.90;;;;;;5087328;28;20024;-55
2022/12/22 05:30:44;;;;;;;11.82;4.30;;;10.60;99.90;;;;;;5086416;28;20029;-54
2022/12/22 05:33:09;;;;;;;15.82;4.85;;;10.60;99.90;;;;;;5085957;28;20066;-54
2022/12/22 05:35:35;;;;;;;8.50;4.05;;;10.60;99.90;;;;;;5085853;28;20036;-54
2022/12/22 05:38:00;;;;;;;10.65;4.57;;;10.60;99.90;;;;;;5087140;28;20028;-55
2022/12/22 05:40:26;;;;;;;11.32;5.00;;;10.60;99.90;;;;;;5087153;28;20445;-55
2022/12/22 05:42:52;;;;;;;9.48;4.70;;;10.60;99.90;;;;;;5086958;28;20032;-55
2022/12/22 05:45:18;;;;;;;9.98;4.43;;;10.70;99.90;;;;;;5085316;28;20028;-54
2022/12/22 05:47:45;;;;;;;9.63;4.38;;;10.60;99.90;;;;;;5085642;28;20025;-55
2022/12/22 05:50:11;;;;;;;9.32;3.88;;;10.60;99.90;;;;;;5087113;28;20036;-54
2022/12/22 05:52:37;;;;;;;7.90;4.15;;;10.60;99.90;;;;;;5085659;28;20032;-54
2022/12/22 05:55:03;;;;;;;8.30;3.88;;;10.60;99.90;;;;;;5087111;28;20461;-54
2022/12/22 05:57:28;;;;;;;8.98;4.35;;;10.60;99.90;;;;;;5085312;28;20086;-54
2022/12/22 05:59:54;;;;;;;8.88;3.78;;;10.60;99.90;;;;;;5086899;28;20024;-54
2022/12/22 06:02:20;;;;;;;9.45;4.28;;;10.60;99.90;;;;;;5085576;28;20056;-54
2022/12/22 06:04:46;;;;;;;12.32;5.85;;;10.60;99.90;;;;;;5085136;28;20036;-55
2022/12/22 06:07:11;;;;;;;9.70;5.32;;;10.60;99.90;;;;;;5085287;28;20037;-54
2022/12/22 06:09:37;;;;;;;10.40;4.45;;;10.60;99.90;;;;;;5085144;28;20092;-55
2022/12/22 06:12:02;;;;;;;8.30;4.43;;;10.60;99.90;;;;;;5068311;28;20111;-54
2022/12/22 06:14:28;;;;;;;9.25;3.75;;;10.60;99.90;;;;;;5085134;28;20082;-54
2022/12/22 06:16:53;;;;;;;8.13;4.25;;;10.60;99.90;;;;;;5068332;28;20024;-55
2022/12/22 06:19:19;;;;;;;6.75;3.88;;;10.60;99.90;;;;;;5086413;28;20035;-54
2022/12/22 06:21:44;;;;;;;8.45;3.47;;;10.60;99.90;;;;;;5086179;28;20031;-53
2022/12/22 06:24:10;;;;;;;7.38;3.58;;;10.60;99.90;;;;;;5087900;28;20024;-55
2022/12/22 06:26:36;;;;;;;8.63;3.45;;;10.60;99.90;;;;;;5086217;28;20067;-55
2022/12/22 06:29:01;;;;;;;6.82;3.58;;;10.60;99.90;;;;;;5084701;28;20035;-55
2022/12/22 06:31:27;;;;;;;21.23;4.43;;;10.50;99.90;;;;;;5084866;28;20016;-55
2022/12/22 06:33:52;;;;;;;41.15;7.25;;;10.50;99.90;;;;;;5085973;28;20035;-55
2022/12/22 06:36:18;;;;;;;37.58;5.70;;;10.50;99.90;;;;;;5084673;28;20024;-55
2022/12/22 06:38:43;;;;;;;19.77;5.13;;;10.50;99.90;;;;;;5085841;28;20059;-54
2022/12/22 06:41:09;;;;;;;23.83;4.88;;;10.50;99.90;;;;;;5086051;28;20051;-54
2022/12/22 06:43:34;;;;;;;17.17;3.75;;;10.50;99.90;;;;;;5085734;28;20029;-58
2022/12/22 06:46:00;;;;;;;17.52;5.32;;;10.50;99.90;;;;;;5084574;28;20052;-58
2022/12/22 06:48:25;;;;;;;21.38;4.75;;;10.50;99.90;;;;;;5085771;28;20440;-59
2022/12/22 06:50:51;;;;;;;26.38;5.25;;;10.50;99.90;;;;;;5085826;28;20127;-59
2022/12/22 06:53:17;;;;;;;29.35;6.30;;;10.50;99.90;;;;;;5083960;28;20033;-58
2022/12/22 06:55:42;;;;;;;45.35;6.10;;;10.50;99.90;;;;;;5084119;28;20051;-59
2022/12/22 06:58:08;;;;;;;46.90;7.70;;;10.50;99.90;;;;;;5085590;28;20079;-59
2022/12/22 07:00:34;;;;;;;59.20;7.20;;;10.50;99.90;;;;;;5084154;28;20509;-58
2022/12/22 07:02:59;;;;;;;68.70;10.00;;;10.50;99.90;;;;;;5084306;28;20036;-58
2022/12/22 07:05:25;;;;;;;59.08;7.03;;;10.50;99.90;;;;;;5084174;28;20033;-58
2022/12/22 07:07:51;;;;;;;67.25;9.82;;;10.50;99.90;;;;;;5085316;28;20445;-59
2022/12/22 07:10:16;;;;;;;59.53;8.25;;;10.60;99.90;;;;;;5067353;28;20028;-59
2022/12/22 07:12:42;;;;;;;53.85;7.50;;;10.60;99.90;;;;;;5085196;28;20033;-58
2022/12/22 07:15:08;;;;;;;51.72;7.53;;;10.50;99.90;;;;;;5083839;28;20025;-58
2022/12/22 07:17:33;;;;;;;34.42;5.47;;;10.50;99.90;;;;;;5083796;28;20025;-58
2022/12/22 07:19:59;;;;;;;62.53;7.50;;;10.50;99.90;;;;;;5067355;28;20088;-58
2022/12/22 07:22:24;;;;;;;62.67;8.02;;;10.60;99.90;;;;;;5084422;28;20480;-59
2022/12/22 07:24:50;;;;;;;53.97;7.05;;;10.60;99.90;;;;;;5084449;28;20495;-58
2022/12/22 07:27:16;;;;;;;44.63;6.57;;;10.60;99.90;;;;;;5084916;28;20035;-55
2022/12/22 07:29:41;;;;;;;46.75;6.07;;;10.60;99.90;;;;;;5083702;28;20032;-55
2022/12/22 07:32:07;;;;;;;40.13;6.20;;;10.60;99.90;;;;;;5084926;28;20035;-55
2022/12/22 07:34:32;;;;;;;39.45;5.70;;;10.60;99.90;;;;;;5084869;28;20028;-54
2022/12/22 07:36:58;;;;;;;52.55;6.25;;;10.60;99.90;;;;;;5080658;28;20029;-54
2022/12/22 07:39:23;;;;;;;50.17;6.20;;;10.60;99.90;;;;;;5083508;28;20082;-59
2022/12/22 07:44:33;;;;;;;40.83;5.70;;;10.60;99.90;;;;;;5083290;28;20092;-59
2022/12/22 07:46:59;;;;;;;35.40;5.07;;;10.60;99.90;;;;;;5082867;28;20428;-58
2022/12/22 07:52:08;;;;;;;33.42;4.88;;;10.60;99.90;;;;;;5083433;28;20044;-59
2022/12/22 07:54:34;;;;;;;43.45;5.45;;;10.60;99.90;;;;;;5084748;28;20353;-58
2022/12/22 07:56:59;;;;;;;44.33;4.97;;;10.60;99.90;;;;;;5083483;28;20353;-58
2022/12/22 07:59:25;;;;;;;187.40;15.88;;;10.60;99.90;;;;;;5083584;28;20036;-58
2022/12/22 08:01:50;;;;;;;63.50;7.15;;;10.60;99.90;;;;;;5085073;28;20072;-59
2022/12/22 08:04:16;;;;;;;55.90;6.03;;;10.60;99.90;;;;;;5083671;28;20028;-58
2022/12/22 08:06:42;;;;;;;43.40;3.60;;;10.60;99.90;;;;;;5082354;28;20076;-58
2022/12/22 08:09:08;;;;;;;49.83;5.25;;;10.70;99.90;;;;;;5083268;28;20028;-58
2022/12/22 08:11:33;;;;;;;84.80;8.60;;;10.70;99.90;;;;;;5083369;28;20021;-58
2022/12/22 08:13:59;;;;;;;53.55;5.57;;;10.70;99.90;;;;;;5084609;28;20029;-57
2022/12/22 08:16:24;;;;;;;19.00;3.28;;;10.70;99.90;;;;;;5083293;28;20029;-58
2022/12/22 08:18:50;;;;;;;19.75;3.53;;;10.70;99.90;;;;;;5084430;28;20065;-58
2022/12/22 08:21:16;;;;;;;35.78;4.65;;;10.70;99.90;;;;;;5083098;28;20138;-58
2022/12/22 08:23:41;;;;;;;29.45;4.90;;;10.70;99.90;;;;;;5100046;28;20033;-58
2022/12/22 08:26:26;;;;;;;33.65;4.15;;;10.70;99.90;;;;;;5084449;28;20029;-58
2022/12/22 08:28:53;;;;;;;18.03;3.63;;;10.70;99.90;;;;;;5099750;28;20032;-58
2022/12/22 08:31:19;;;;;;;23.08;3.42;;;10.70;99.90;;;;;;5084624;28;20796;-58
2022/12/22 08:33:44;;;;;;;17.48;2.97;;;10.70;99.90;;;;;;5099859;28;20028;-58
2022/12/22 08:36:10;;;;;;;33.63;3.80;;;10.70;99.90;;;;;;5099969;28;20040;-58
2022/12/22 08:38:36;;;;;;;30.20;3.40;;;10.80;99.90;;;;;;5082881;28;20051;-58
2022/12/22 08:41:02;;;;;;;19.95;2.97;;;10.80;99.90;;;;;;5083122;28;20040;-58
2022/12/22 08:43:27;;;;;;;29.00;3.92;;;10.80;99.90;;;;;;5082926;28;20036;-58
2022/12/22 08:45:53;;;;;;;14.70;2.55;;;10.80;99.90;;;;;;5082857;28;20032;-58
2022/12/22 08:48:19;;;;;;;19.08;3.30;;;10.80;99.90;;;;;;5100185;28;20024;-58
2022/12/22 08:50:44;;;;;;;16.52;3.33;;;10.80;99.90;;;;;;5083197;28;20028;-58
2022/12/22 08:53:10;;;;;;;15.10;2.97;;;10.80;99.90;;;;;;5099699;28;20020;-58
2022/12/22 08:55:35;;;;;;;12.30;2.40;;;10.90;99.90;;;;;;5084089;28;20025;-58
2022/12/22 08:58:01;;;;;;;11.50;2.17;;;10.90;99.90;;;;;;5084150;28;20299;-58
2022/12/22 09:00:26;;;;;;;10.43;2.53;;;10.90;99.90;;;;;;5082691;28;20029;-58
2022/12/22 09:02:52;;;;;;;19.20;2.53;;;10.90;99.90;;;;;;5082806;28;20036;-58
2022/12/22 09:05:18;;;;;;;6.45;1.73;;;10.90;99.90;;;;;;5086123;28;20420;-57
2022/12/22 09:07:46;;;;;;;12.05;2.00;;;10.90;99.90;;;;;;5085956;28;20407;-58
2022/12/22 09:10:11;;;;;;;10.98;1.90;;;11.00;99.90;;;;;;5086184;28;20024;-58
2022/12/22 09:12:37;;;;;;;12.93;1.92;;;11.00;99.90;;;;;;5103334;28;20493;-58
2022/12/22 09:15:03;;;;;;;7.30;1.75;;;11.00;99.90;;;;;;5086189;28;20059;-58
2022/12/22 09:17:28;;;;;;;6.28;2.17;;;11.00;99.90;;;;;;5087734;28;20067;-58
2022/12/22 09:19:54;;;;;;;6.90;1.80;;;11.00;99.90;;;;;;5086151;28;20052;-58
2022/12/22 09:22:19;;;;;;;11.80;2.67;;;11.00;99.90;;;;;;5087345;28;20039;-58
2022/12/22 09:24:45;;;;;;;11.73;2.10;;;11.10;99.90;;;;;;5085919;28;20033;-58
2022/12/22 09:27:10;;;;;;;6.38;1.92;;;11.10;99.90;;;;;;5102822;28;20067;-58
2022/12/22 09:29:36;;;;;;;9.85;1.98;;;11.10;99.90;;;;;;5102751;28;20016;-58
2022/12/22 09:32:02;;;;;;;8.40;2.28;;;11.10;99.90;;;;;;5086120;28;20199;-59
2022/12/22 09:34:28;;;;;;;17.38;2.75;;;11.10;99.90;;;;;;5086216;28;20222;-58
2022/12/22 09:36:53;;;;;;;41.53;4.55;;;11.10;99.90;;;;;;5087416;28;20460;-58
2022/12/22 09:39:19;;;;;;;93.22;8.18;;;11.10;99.90;;;;;;5087150;28;20021;-58
2022/12/22 09:41:52;;;;;;;82.30;8.35;;;11.10;99.90;;;;;;5086896;28;20457;-58
2022/12/22 09:44:45;;;;;;;31.17;5.00;;;11.10;99.90;;;;;;5085440;28;20032;-58
2022/12/22 09:47:39;;;;;;;93.25;9.25;;;11.20;99.90;;;;;;5099004;28;20140;-58
2022/12/22 09:50:05;;;;;;;51.38;6.25;;;11.20;99.90;;;;;;5086679;28;20448;-58
2022/12/22 09:52:34;;;;;;;39.70;4.53;;;11.20;99.90;;;;;;5084810;28;20032;-58
2022/12/22 09:55:00;;;;;;;38.13;4.90;;;11.20;99.90;;;;;;5085426;28;20039;-58
2022/12/22 09:57:29;;;;;;;30.52;3.95;;;11.20;99.90;;;;;;5085311;28;20025;-58
2022/12/22 09:59:55;;;;;;;49.88;5.15;;;11.20;99.80;;;;;;5085200;28;20058;-59
2022/12/22 10:02:27;;;;;;;31.60;3.65;;;11.20;99.90;;;;;;5084929;28;20029;-58
2022/12/22 10:04:56;;;;;;;43.38;5.25;;;11.30;99.90;;;;;;5085314;28;20150;-58
2022/12/22 10:07:32;;;;;;;48.40;5.28;;;11.30;99.80;;;;;;5085191;28;20025;-58
2022/12/22 10:10:19;;;;;;;44.35;4.85;;;11.30;99.80;;;;;;5086028;28;20025;-59
2022/12/22 10:12:44;;;;;;;43.83;5.25;;;11.30;99.80;;;;;;5084732;28;20077;-59
2022/12/22 10:15:10;;;;;;;38.78;4.38;;;11.30;99.80;;;;;;5086174;28;20085;-58
2022/12/22 10:17:37;;;;;;;32.60;4.57;;;11.30;99.80;;;;;;5085031;28;20059;-59
2022/12/22 10:20:24;;;;;;;53.17;6.05;;;11.30;99.90;;;;;;5085269;28;20079;-59
2022/12/22 10:22:52;;;;;;;19.45;3.47;;;11.30;99.90;;;;;;5084703;28;20123;-58
2022/12/22 10:25:37;;;;;;;20.63;3.28;;;11.30;99.90;;;;;;5085667;28;20115;-58
2022/12/22 10:28:06;;;;;;;17.65;3.17;;;11.40;99.80;;;;;;5086124;28;20093;-58
2022/12/22 10:30:34;;;;;;;20.40;3.80;;;11.40;99.80;;;;;;5067996;28;20106;-58
2022/12/22 10:33:06;;;;;;;21.73;3.33;;;11.40;99.80;;;;;;5084132;28;20032;-58
2022/12/22 10:35:41;;;;;;;15.65;3.13;;;11.40;99.80;;;;;;5084269;28;20056;-59
2022/12/22 10:38:29;;;;;;;50.17;5.57;;;11.40;99.90;;;;;;5084203;28;20033;-59
2022/12/22 10:40:57;;;;;;;42.85;6.32;;;11.40;99.90;;;;;;5071805;28;20476;-58
2022/12/22 10:43:34;;;;;;;61.65;8.00;;;11.40;99.90;;;;;;5066240;28;20099;-59
2022/12/22 10:46:00;;;;;;;57.90;8.07;;;11.50;99.90;;;;;;5083637;28;20123;-58
2022/12/22 10:48:31;;;;;;;65.28;8.23;;;11.50;99.90;;;;;;5082434;28;20032;-59
2022/12/22 10:50:57;;;;;;;50.65;7.25;;;11.50;99.90;;;;;;5067772;28;20040;-59
2022/12/22 10:53:52;;;;;;;63.17;8.02;;;11.50;99.90;;;;;;5079389;28;20024;-59
2022/12/22 10:56:29;;;;;;;45.58;5.65;;;11.60;99.90;;;;;;5076696;28;20058;-59
2022/12/22 10:58:56;;;;;;;52.38;5.82;;;11.60;99.90;;;;;;5064835;28;20032;-59
2022/12/22 11:01:32;;;;;;;47.20;7.32;;;11.60;99.90;;;;;;5084073;28;20070;-59
2022/12/22 11:04:13;;;;;;;26.35;3.75;;;11.60;99.90;;;;;;5083101;28;20028;-59
2022/12/22 11:06:39;;;;;;;34.97;4.82;;;11.60;99.90;;;;;;5082757;28;20040;-59
2022/12/22 11:09:07;;;;;;;51.33;5.18;;;11.60;99.90;;;;;;5076388;28;20033;-58
2022/12/22 11:11:54;;;;;;;50.05;6.40;;;11.60;99.90;;;;;;5083480;28;20032;-59
2022/12/22 11:14:40;;;;;;;34.10;5.28;;;11.70;99.90;;;;;;5083582;28;20112;-59
2022/12/22 11:17:27;;;;;;;37.80;5.22;;;11.70;99.90;;;;;;5061750;28;20089;-59
2022/12/22 11:19:58;;;;;;;44.83;5.68;;;11.60;99.90;;;;;;5074953;28;20020;-59
2022/12/22 11:22:27;;;;;;;37.03;6.63;;;11.70;99.90;;;;;;5084799;28;20500;-58
2022/12/22 11:25:00;;;;;;;55.72;6.63;;;11.70;99.90;;;;;;5083866;28;20031;-59
2022/12/22 11:27:56;;;;;;;67.47;8.45;;;11.70;99.90;;;;;;5079982;28;20028;-59
2022/12/22 11:30:23;;;;;;;;;;;11.80;99.90;;;;;;5083134;28;20036;-59
2022/12/22 11:33:01;;;;;;;124.40;13.38;;;11.80;99.80;;;;;;5117124;28;19904;-58
2022/12/22 11:35:51;;;;;;;80.50;8.80;;;11.80;99.70;;;;;;5074388;28;20037;-58
2022/12/22 11:38:35;;;;;;;39.17;5.72;;;11.90;99.40;;;;;;5075079;28;20109;-59
2022/12/22 11:41:20;;;;;;;51.33;5.40;;;11.90;99.00;;;;;;5084678;28;20037;-58
2022/12/22 11:43:51;;;;;;;88.38;10.35;;;11.80;98.70;;;;;;5081119;28;20064;-59
2022/12/22 11:46:27;;;;;;;103.53;10.82;;;11.90;98.90;;;;;;5093218;28;20128;-58
2022/12/22 11:48:54;;;;;;;99.65;11.63;;;11.90;99.20;;;;;;5099589;28;20087;-59
2022/12/22 11:51:29;;;;;;;87.53;11.65;;;11.90;99.10;;;;;;5079725;28;20028;-59
2022/12/22 11:54:39;;;;;;;132.27;16.23;;;11.90;99.10;;;;;;5091614;28;20082;-58
2022/12/22 11:57:25;;;;;;;96.88;12.07;;;12.00;99.30;;;;;;5060751;28;20082;-58
2022/12/22 11:59:58;;;;;;;110.53;11.75;;;12.00;99.50;;;;;;5045279;28;20067;-59
2022/12/22 12:02:46;;;;;;;128.77;13.25;;;12.00;99.20;;;;;;5058462;28;20041;-58
2022/12/22 12:05:40;;;;;;;140.98;14.88;;;12.00;99.10;;;;;;5076810;28;20063;-59
2022/12/22 12:08:11;;;;;;;116.75;13.90;;;12.10;99.30;;;;;;5067249;28;20036;-58
2022/12/22 12:11:24;;;;;;;109.15;12.32;;;12.10;98.90;;;;;;5078324;28;20021;-59
2022/12/22 12:14:24;;;;;;;104.82;12.00;;;12.10;98.80;;;;;;5060130;28;20068;-59
2022/12/22 12:17:01;;;;;;;128.80;13.32;;;12.10;98.70;;;;;;5066082;28;20020;-58
2022/12/22 12:19:41;;;;;;;133.55;13.45;;;12.10;98.90;;;;;;5080391;28;20032;-59
2022/12/22 12:22:17;;;;;;;129.23;13.30;;;12.10;98.90;;;;;;5071880;28;20021;-57
2022/12/22 12:25:10;;;;;;;78.70;11.18;;;12.20;98.80;;;;;;5064182;28;20033;-58
2022/12/22 12:28:14;;;;;;;120.65;15.02;;;12.20;98.70;;;;;;5084806;28;20117;-58
2022/12/22 12:30:49;;;;;;;185.85;18.95;;;12.20;98.90;;;;;;5061323;28;20036;-57
2022/12/22 12:33:44;;;;;;;289.83;29.00;;;12.20;98.80;;;;;;5027131;28;20033;-59
2022/12/22 12:36:09;;;;;;;184.20;16.55;;;12.20;98.80;;;;;;5064340;28;20349;-59
2022/12/22 12:38:46;;;;;;;157.10;17.33;;;12.20;99.10;;;;;;5073883;28;20037;-59
2022/12/22 12:41:16;;;;;;;210.20;20.65;;;12.20;98.90;;;;;;5071620;28;20127;-58
2022/12/22 12:43:41;;;;;;;136.45;14.15;;;12.30;98.90;;;;;;5086117;28;20032;-58
2022/12/22 12:46:39;;;;;;;124.63;12.23;;;12.20;98.90;;;;;;5094609;28;20029;-58
2022/12/22 12:49:04;;;;;;;103.68;13.15;;;12.30;98.90;;;;;;5076565;28;20036;-58
2022/12/22 12:51:47;;;;;;;88.00;10.82;;;12.30;98.70;;;;;;5072072;28;20116;-59
2022/12/22 12:54:28;;;;;;;82.15;10.10;;;12.30;98.50;;;;;;5073384;28;20454;-58
2022/12/22 12:57:09;;;;;;;321.65;29.50;;;12.30;98.30;;;;;;5078335;28;20030;-58
2022/12/22 12:59:40;;;;;;;375.92;33.55;;;12.30;98.20;;;;;;5076925;28;20094;-58
2022/12/22 13:02:25;;;;;;;110.07;12.32;;;12.30;98.40;;;;;;5080699;28;20026;-58
2022/12/22 13:05:06;;;;;;;165.60;16.50;;;12.40;98.30;;;;;;5071396;28;20071;-59
2022/12/22 13:08:06;;;;;;;124.47;13.02;;;12.30;98.40;;;;;;5098747;28;20059;-58
2022/12/22 13:10:33;;;;;;;115.00;13.68;;;12.30;98.40;;;;;;5096073;28;20059;-59
2022/12/22 13:12:59;;;;;;;81.68;10.23;;;12.30;98.50;;;;;;5089181;28;20016;-58
2022/12/22 13:15:33;;;;;;;65.50;9.27;;;12.40;98.60;;;;;;5093764;28;20040;-58
2022/12/22 13:17:59;;;;;;;83.47;9.05;;;12.40;98.70;;;;;;5091388;28;20039;-58
2022/12/22 13:20:31;;;;;;;44.78;6.63;;;12.40;98.60;;;;;;5079665;28;20415;-59
2022/12/22 13:22:57;;;;;;;46.15;6.35;;;12.40;98.60;;;;;;5084140;28;20025;-58
2022/12/22 13:25:24;;;;;;;98.28;8.95;;;12.40;98.50;;;;;;5063581;28;20036;-59
2022/12/22 13:27:50;;;;;;;82.85;9.88;;;12.40;98.60;;;;;;5095918;28;20135;-59
2022/12/22 13:30:18;;;;;;;81.97;10.43;;;12.50;99.10;;;;;;5084275;28;20029;-59
2022/12/22 13:32:44;;;;;;;139.07;15.30;;;12.50;98.90;;;;;;5099930;28;20028;-59
2022/12/22 13:35:21;;;;;;;143.98;14.70;;;12.50;99.10;;;;;;5082502;28;20048;-58
2022/12/22 13:37:48;;;;;;;128.18;15.48;;;12.60;99.40;;;;;;5073141;28;20024;-58
2022/12/22 13:40:13;;;;;;;148.45;16.05;;;12.60;99.40;;;;;;5074719;28;20040;-58
2022/12/22 13:42:56;;;;;;;121.40;13.30;;;12.60;99.40;;;;;;5073612;28;20028;-59
2022/12/22 13:45:38;;;;;;;420.25;40.22;;;12.60;99.40;;;;;;5055116;28;20033;-58
2022/12/22 13:48:24;;;;;;;189.63;18.35;;;12.60;99.50;;;;;;5087026;28;20021;-59
2022/12/22 13:51:01;;;;;;;204.32;24.05;;;12.70;99.60;;;;;;5053916;28;20059;-58
2022/12/22 13:53:36;;;;;;;301.92;28.20;;;12.70;99.60;;;;;;5063618;28;20033;-58
2022/12/22 13:56:07;;;;;;;154.55;16.70;;;12.70;99.60;;;;;;5065394;28;20048;-58
2022/12/22 13:58:37;;;;;;;158.48;17.42;;;12.70;99.40;;;;;;5065470;28;20045;-58
2022/12/22 14:01:09;;;;;;;175.10;17.13;;;12.80;99.60;;;;;;5069361;28;20047;-58
2022/12/22 14:03:35;;;;;;;214.50;20.42;;;12.80;99.60;;;;;;5066845;28;20033;-58
2022/12/22 14:06:00;;;;;;;247.30;24.75;;;12.80;99.50;;;;;;5067356;28;20029;-55
2022/12/22 14:08:26;;;;;;;147.05;16.23;;;12.70;99.50;;;;;;5084585;28;20036;-55
2022/12/22 14:10:52;;;;;;;116.93;13.68;;;12.80;99.40;;;;;;5075984;28;20025;-55
2022/12/22 14:13:19;;;;;;;118.90;15.52;;;12.70;99.30;;;;;;5064927;28;20044;-55
2022/12/22 14:15:45;;;;;;;76.53;11.07;;;12.70;99.10;;;;;;5075600;28;20036;-55
2022/12/22 14:18:15;;;;;;;60.92;7.47;;;12.70;98.90;;;;;;5084516;28;20104;-55
2022/12/22 14:20:41;;;;;;;65.63;8.48;;;12.70;98.70;;;;;;5052187;28;20040;-55
2022/12/22 14:23:23;;;;;;;69.88;8.88;;;12.70;98.60;;;;;;5066022;28;20099;-55
2022/12/22 14:25:49;;;;;;;274.88;25.15;;;12.70;98.60;;;;;;5054044;28;20024;-55
2022/12/22 14:28:19;;;;;;;169.88;18.40;;;12.70;98.70;;;;;;5083686;28;20438;-55
2022/12/22 14:30:46;;;;;;;119.18;14.63;;;12.70;99.00;;;;;;5079264;28;20036;-55
2022/12/22 14:33:26;;;;;;;139.13;14.80;;;12.70;99.10;;;;;;5080963;28;20021;-55
2022/12/22 14:36:19;;;;;;;94.25;13.63;;;12.70;99.10;;;;;;5082304;28;20040;-55
2022/12/22 14:38:55;;;;;;;104.43;13.30;;;12.70;99.00;;;;;;5085786;28;20055;-55
2022/12/22 14:41:43;;;;;;;87.18;11.63;;;12.70;99.00;;;;;;5063697;28;20029;-55
2022/12/22 14:44:22;;;;;;;129.52;14.40;;;12.70;98.90;;;;;;5063593;28;20166;-55
2022/12/22 14:47:16;;;;;;;111.90;13.82;;;12.70;98.80;;;;;;5078355;28;20556;-55
2022/12/22 14:50:00;;;;;;;153.00;16.65;;;12.70;98.90;;;;;;5082505;28;20024;-55
2022/12/22 14:52:38;;;;;;;134.35;14.45;;;12.70;99.10;;;;;;5076862;28;20063;-55
2022/12/22 14:55:04;;;;;;;128.43;16.23;;;12.70;99.00;;;;;;5083507;28;20088;-55
2022/12/22 14:57:41;;;;;;;137.02;13.93;;;12.70;98.80;;;;;;5078023;28;20033;-55
2022/12/22 15:00:08;;;;;;;143.15;15.88;;;12.70;98.80;;;;;;5079289;28;20059;-55
2022/12/22 15:02:38;;;;;;;126.70;14.15;;;12.70;98.90;;;;;;5065127;28;20066;-55
2022/12/22 15:05:22;;;;;;;125.28;14.02;;;12.80;98.80;;;;;;5083208;28;20044;-55
2022/12/22 15:07:49;;;;;;;139.95;14.82;;;12.80;98.90;;;;;;5064144;28;20099;-55
2022/12/22 15:10:15;;;;;;;253.27;21.02;;;12.80;98.80;;;;;;5081102;28;20025;-55
2022/12/22 15:12:41;;;;;;;152.77;15.60;;;12.80;98.80;;;;;;5072003;28;20120;-55
2022/12/22 15:15:18;;;;;;;178.55;19.75;;;12.80;98.90;;;;;;5058733;28;20059;-55
2022/12/22 15:17:45;;;;;;;175.75;19.13;;;12.80;99.00;;;;;;5072730;28;20025;-55
2022/12/22 15:20:16;;;;;;;139.10;15.15;;;12.80;98.80;;;;;;5075940;28;20040;-55
2022/12/22 15:22:42;;;;;;;131.63;13.57;;;12.90;98.50;;;;;;5098935;28;20024;-55
2022/12/22 15:25:21;;;;;;;152.15;15.23;;;13.00;98.30;;;;;;5075714;28;20032;-55
2022/12/22 15:27:47;;;;;;;142.35;16.17;;;12.90;98.30;;;;;;5068800;28;20031;-55
2022/12/22 15:30:15;;;;;;;153.63;15.65;;;12.90;98.40;;;;;;5073770;28;20052;-55
2022/12/22 15:32:41;;;;;;;157.10;16.30;;;12.90;98.40;;;;;;5081328;28;20024;-55
2022/12/22 15:35:30;;;;;;;181.75;18.65;;;12.90;98.40;;;;;;5083759;28;20028;-55
2022/12/22 15:37:56;;;;;;;184.38;19.10;;;12.90;98.40;;;;;;5087146;28;20028;-55
2022/12/22 15:40:22;;;;;;;135.95;15.35;;;12.90;98.30;;;;;;5082537;28;20056;-55
2022/12/22 15:42:48;;;;;;;142.93;15.07;;;12.90;97.80;;;;;;5083205;28;20020;-55
2022/12/22 15:45:14;;;;;;;120.93;13.57;;;12.90;97.70;;;;;;5080692;28;20052;-55
2022/12/22 15:47:49;;;;;;;131.77;14.52;;;13.00;97.80;;;;;;5073901;28;20052;-55
2022/12/22 15:50:18;;;;;;;164.50;16.40;;;13.00;97.50;;;;;;5080925;28;20050;-55
2022/12/22 15:52:46;;;;;;;105.75;13.63;;;13.00;97.80;;;;;;5065473;28;20105;-55
2022/12/22 15:55:13;;;;;;;190.85;19.58;;;13.10;97.80;;;;;;5076146;28;20041;-55
2022/12/22 15:57:39;;;;;;;187.73;19.40;;;13.10;98.00;;;;;;5076068;28;20044;-55
2022/12/22 16:00:05;;;;;;;164.57;17.83;;;13.10;98.30;;;;;;5064825;28;20036;-55
2022/12/22 16:02:30;;;;;;;192.73;20.55;;;13.10;98.20;;;;;;5075801;28;20021;-55
2022/12/22 16:04:56;;;;;;;193.13;18.80;;;13.20;98.30;;;;;;5073710;28;20029;-55
2022/12/22 16:07:22;;;;;;;207.48;22.48;;;13.20;98.20;;;;;;5081629;28;20066;-55
2022/12/22 16:09:47;;;;;;;222.18;22.75;;;13.20;98.30;;;;;;5083495;28;20017;-55
2022/12/22 16:12:17;;;;;;;222.18;22.55;;;13.20;98.20;;;;;;5065337;28;20038;-55
2022/12/22 16:14:44;;;;;;;187.93;20.63;;;13.20;98.30;;;;;;5104475;28;20032;-55
2022/12/22 16:17:20;;;;;;;168.85;19.70;;;13.20;98.20;;;;;;5083075;28;20078;-54
2022/12/22 16:19:45;;;;;;;229.70;25.38;;;13.20;98.20;;;;;;5095112;28;20102;-55
2022/12/22 16:22:12;;;;;;;179.32;21.10;;;13.20;98.40;;;;;;5084046;28;20040;-55
2022/12/22 16:24:38;;;;;;;225.48;22.52;;;13.20;98.70;;;;;;5074677;28;20154;-55
2022/12/22 16:27:03;;;;;;;208.15;23.23;;;13.20;98.60;;;;;;5092073;28;20102;-56